Shawanaga, Canada
Current Conditions -  °F | °C
As of 9:00 PM on Tuesday 27 Jan 2015 (Local Time) from CYQA Reporting Station
Clear Clear  
Wind Chill: -2°   Ceiling: Unl
Heat Index:   Visibility: 9mi
Dew Point: -2°   Wind: 5mph
Humidity: 67%   Direction: 340°NNW
Pressure: 30.12"   Gusts: NA
Location:  45.52°N, 80.28°W
Report Text: CYQA 280100Z AUTO 34004KT 9SM CLR M14/M19 A3012 RMK SLP226
Loading
Personal Weather Stations






























Interactive Weather Map New forecast layout! Learn more

10-Day Weather Forecast

Advertisements
Track Severe Weather on mobile